Time;durP1;ratioP1;P1;durP2;ratioP2;P2;SDS_P1;SDS_P2;PMS_P1;PMS_P2;Temp;Humidity;BMP_temperature;BMP_pressure;BME280_temperature;BME280_humidity;BME280_pressure;Samples;Min_cycle;Max_cycle;Signal;HPM_P1;HPM_P2
2021/03/14 00:00:37;;;;;;;5.30;0.50;;;;;;;5.96;100.00;96953.13;4993206;28;20291;-70
2021/03/14 00:03:05;;;;;;;1.70;0.30;;;;;;;6.10;100.00;96948.69;4990793;28;20215;-70
2021/03/14 00:05:32;;;;;;;0.43;0.30;;;;;;;6.09;100.00;96965.59;4991185;28;20232;-70
2021/03/14 00:07:59;;;;;;;0.50;0.30;;;;;;;6.11;100.00;96967.03;4994545;28;20206;-70
2021/03/14 00:10:27;;;;;;;0.40;0.40;;;;;;;6.13;100.00;96958.88;4998920;28;20223;-68
2021/03/14 00:12:54;;;;;;;1.80;0.23;;;;;;;6.22;100.00;96968.28;4991352;28;20553;-68
2021/03/14 00:15:21;;;;;;;1.47;0.30;;;;;;;6.28;100.00;96967.47;4989810;28;20267;-69
2021/03/14 00:17:51;;;;;;;4.37;0.30;;;;;;;6.22;100.00;96960.34;5000669;28;20231;-69
2021/03/14 00:20:18;;;;;;;3.93;0.40;;;;;;;6.19;100.00;96971.34;4987872;28;20220;-69
2021/03/14 00:22:45;;;;;;;1.93;0.93;;;;;;;6.21;100.00;96987.84;4993497;28;20298;-69
2021/03/14 00:25:13;;;;;;;1.00;0.53;;;;;;;6.24;100.00;96998.84;4990854;28;20611;-69
2021/03/14 00:27:43;;;;;;;1.47;0.43;;;;;;;6.20;100.00;97008.19;4992575;28;20214;-70
2021/03/14 00:30:14;;;;;;;1.17;0.30;;;;;;;5.94;100.00;97008.09;4988998;28;20235;-69
2021/03/14 00:32:41;;;;;;;0.93;0.50;;;;;;;5.87;100.00;97007.25;4995817;28;20210;-69
2021/03/14 00:35:13;;;;;;;0.50;0.40;;;;;;;5.93;100.00;97000.34;4995641;28;20274;-69
2021/03/14 00:37:40;;;;;;;1.70;0.30;;;;;;;5.62;100.00;97003.41;5005530;28;20207;-68
2021/03/14 00:40:08;;;;;;;2.10;0.50;;;;;;;5.80;100.00;96997.63;5005043;28;20225;-68
2021/03/14 00:42:35;;;;;;;1.00;0.30;;;;;;;5.68;100.00;97002.63;5003913;28;20212;-69
2021/03/14 00:45:04;;;;;;;1.03;0.40;;;;;;;5.69;100.00;97006.09;4995839;28;20239;-68
2021/03/14 00:47:31;;;;;;;0.30;0.30;;;;;;;5.75;100.00;97007.97;5003122;28;20200;-69
2021/03/14 00:49:58;;;;;;;0.77;0.50;;;;;;;5.80;100.00;97017.00;4991684;28;20232;-69
2021/03/14 00:52:25;;;;;;;0.40;0.30;;;;;;;5.70;100.00;97011.22;4996710;28;20216;-69
2021/03/14 00:54:52;;;;;;;0.40;0.40;;;;;;;5.39;100.00;97005.47;4994444;28;20205;-69
2021/03/14 00:57:18;;;;;;;1.90;0.40;;;;;;;5.58;100.00;97004.00;4987497;28;20291;-69
2021/03/14 00:59:45;;;;;;;0.30;0.30;;;;;;;5.59;100.00;96992.41;4995174;28;20223;-69
2021/03/14 01:02:13;;;;;;;0.97;0.47;;;;;;;5.50;100.00;96980.34;4991621;28;20261;-69
2021/03/14 01:04:40;;;;;;;0.73;0.30;;;;;;;5.49;100.00;96992.72;4992047;28;20213;-69
2021/03/14 01:07:06;;;;;;;0.37;0.37;;;;;;;5.42;100.00;96999.81;4988287;28;20242;-69
2021/03/14 01:09:33;;;;;;;1.90;0.50;;;;;;;5.31;100.00;97007.47;4991391;28;20223;-69
2021/03/14 01:12:00;;;;;;;0.63;0.40;;;;;;;5.38;100.00;97008.34;4985875;28;20275;-69
2021/03/14 01:14:27;;;;;;;0.30;0.20;;;;;;;5.44;100.00;97002.28;4993047;28;20295;-69
2021/03/14 01:16:54;;;;;;;0.77;0.40;;;;;;;5.51;100.00;97019.00;4992253;28;20205;-68
2021/03/14 01:19:21;;;;;;;0.20;0.20;;;;;;;5.39;100.00;97020.56;4993098;28;20231;-69
2021/03/14 01:21:48;;;;;;;0.20;0.20;;;;;;;5.54;100.00;97022.06;4989418;28;20204;-69
2021/03/14 01:24:15;;;;;;;0.63;0.33;;;;;;;5.45;100.00;97025.06;4990258;28;20207;-69
2021/03/14 01:26:42;;;;;;;1.07;0.40;;;;;;;5.28;100.00;97032.47;4990274;28;20234;-69
2021/03/14 01:29:08;;;;;;;1.20;0.27;;;;;;;5.21;100.00;97034.25;4992460;28;20232;-69
2021/03/14 01:31:35;;;;;;;0.97;0.50;;;;;;;5.50;100.00;97033.25;4992002;28;20216;-69
2021/03/14 01:34:02;;;;;;;0.30;0.30;;;;;;;5.56;100.00;97035.13;4998245;28;20578;-69
2021/03/14 01:36:30;;;;;;;0.20;0.20;;;;;;;5.49;100.00;97034.25;4997274;28;20200;-69
2021/03/14 01:38:57;;;;;;;0.20;0.20;;;;;;;5.64;100.00;97025.19;4990409;28;20261;-69
2021/03/14 01:41:23;;;;;;;1.60;0.30;;;;;;;5.66;100.00;97031.13;4995405;28;20529;-69
2021/03/14 01:43:50;;;;;;;0.20;0.20;;;;;;;5.63;100.00;97020.13;4991801;28;20207;-69
2021/03/14 01:46:17;;;;;;;0.40;0.40;;;;;;;5.55;100.00;97022.91;4983890;28;20228;-70
2021/03/14 01:48:44;;;;;;;0.33;0.33;;;;;;;5.62;100.00;97032.53;4991618;28;20235;-69
2021/03/14 01:51:11;;;;;;;0.20;0.20;;;;;;;5.53;100.00;97033.69;4995007;28;20234;-69
2021/03/14 01:53:39;;;;;;;0.20;0.20;;;;;;;5.65;100.00;97034.78;4994364;28;20210;-69
2021/03/14 01:56:06;;;;;;;0.20;0.20;;;;;;;5.65;100.00;97028.66;5003170;28;20229;-69
2021/03/14 01:58:35;;;;;;;0.20;0.20;;;;;;;5.64;100.00;97038.44;4999025;28;20639;-69
2021/03/14 02:01:02;;;;;;;0.30;0.20;;;;;;;5.44;100.00;97041.97;4993541;28;20266;-69
2021/03/14 02:03:29;;;;;;;0.20;0.20;;;;;;;5.51;100.00;97041.00;4990238;28;20213;-69
2021/03/14 02:05:55;;;;;;;0.20;0.20;;;;;;;5.70;100.00;97047.44;4992653;28;20226;-67
2021/03/14 02:08:23;;;;;;;0.20;0.20;;;;;;;5.40;100.00;97048.63;4993573;28;20234;-69
2021/03/14 02:10:53;;;;;;;0.20;0.20;;;;;;;5.48;100.00;97051.16;4988126;28;20217;-69
2021/03/14 02:13:22;;;;;;;0.20;0.20;;;;;;;5.58;100.00;97055.09;5003063;28;20216;-68
2021/03/14 02:15:55;;;;;;;0.20;0.20;;;;;;;5.31;100.00;97063.84;4988765;28;20218;-68
2021/03/14 02:18:23;;;;;;;0.20;0.20;;;;;;;5.43;100.00;97069.44;4977570;28;20754;-69
2021/03/14 02:20:51;;;;;;;0.40;0.40;;;;;;;5.53;100.00;97068.06;4997865;28;20211;-68
2021/03/14 02:23:32;;;;;;;0.30;0.30;;;;;;;5.56;100.00;97072.16;4991976;28;20263;-70
2021/03/14 02:26:03;;;;;;;0.30;0.30;;;;;;;5.15;100.00;97077.34;4988267;28;20220;-68
2021/03/14 02:28:31;;;;;;;2.23;0.40;;;;;;;5.23;100.00;97073.75;4997025;28;20236;-68
2021/03/14 02:30:58;;;;;;;0.53;0.30;;;;;;;5.23;100.00;97066.59;5000697;28;20208;-69
2021/03/14 02:33:26;;;;;;;1.40;0.30;;;;;;;5.22;100.00;97080.84;4994855;28;20218;-68
2021/03/14 02:35:54;;;;;;;0.40;0.30;;;;;;;5.36;100.00;97079.13;4995285;28;20207;-68
2021/03/14 02:38:21;;;;;;;0.90;0.40;;;;;;;5.27;100.00;97080.25;4989371;28;20728;-69
2021/03/14 02:40:48;;;;;;;0.40;0.40;;;;;;;5.25;100.00;97080.47;4996445;28;20207;-68
2021/03/14 02:43:15;;;;;;;0.50;0.50;;;;;;;5.32;100.00;97083.16;4996088;28;20206;-68
2021/03/14 02:45:43;;;;;;;1.57;0.53;;;;;;;5.26;100.00;97083.91;4993723;28;20238;-69
2021/03/14 02:48:11;;;;;;;0.70;0.60;;;;;;;5.26;100.00;97082.09;5001589;28;20209;-70
2021/03/14 02:50:39;;;;;;;0.80;0.67;;;;;;;5.43;100.00;97080.00;4995216;28;20215;-68
2021/03/14 02:53:07;;;;;;;0.57;0.47;;;;;;;5.42;100.00;97092.41;4994818;28;20261;-67
2021/03/14 02:55:34;;;;;;;0.70;0.57;;;;;;;5.29;100.00;97087.00;4995978;28;20574;-68
2021/03/14 02:58:01;;;;;;;3.60;0.60;;;;;;;5.17;100.00;97099.09;4988812;28;20211;-68
2021/03/14 03:00:30;;;;;;;0.90;0.50;;;;;;;5.43;100.00;97109.91;4995522;28;20258;-68
2021/03/14 03:02:58;;;;;;;0.47;0.47;;;;;;;5.17;100.00;97109.69;4997249;28;20669;-69
2021/03/14 03:05:26;;;;;;;0.40;0.40;;;;;;;5.22;100.00;97122.31;4995811;28;20691;-68
2021/03/14 03:07:55;;;;;;;0.60;0.50;;;;;;;5.40;100.00;97123.53;5002257;28;20203;-68
2021/03/14 03:10:26;;;;;;;0.37;0.37;;;;;;;5.40;100.00;97130.66;4991574;28;20223;-68
2021/03/14 03:12:53;;;;;;;1.63;0.60;;;;;;;5.23;100.00;97140.66;4995329;28;20215;-68
2021/03/14 03:15:21;;;;;;;1.47;0.70;;;;;;;5.26;100.00;97142.94;4992049;28;20253;-68
2021/03/14 03:17:49;;;;;;;0.50;0.50;;;;;;;5.21;100.00;97150.63;4996224;28;20199;-68
2021/03/14 03:20:18;;;;;;;0.80;0.70;;;;;;;5.38;100.00;97153.84;4991438;28;20234;-67
2021/03/14 03:22:44;;;;;;;1.70;0.63;;;;;;;5.25;100.00;97166.91;4995120;28;20273;-67
2021/03/14 03:25:11;;;;;;;0.60;0.40;;;;;;;5.19;100.00;97165.84;4990584;28;20215;-68
2021/03/14 03:27:39;;;;;;;0.63;0.50;;;;;;;5.26;100.00;97168.56;4992246;28;20254;-69
2021/03/14 03:30:07;;;;;;;0.77;0.60;;;;;;;5.21;100.00;97173.59;4993498;28;20285;-69
2021/03/14 03:32:34;;;;;;;0.53;0.50;;;;;;;5.50;100.00;97174.31;4994742;28;20210;-69
2021/03/14 03:35:01;;;;;;;1.37;0.40;;;;;;;5.42;100.00;97184.16;4999271;28;20668;-69
2021/03/14 03:37:29;;;;;;;0.80;0.63;;;;;;;5.22;100.00;97186.63;4996297;28;20218;-69
2021/03/14 03:39:56;;;;;;;2.10;0.77;;;;;;;5.35;100.00;97193.88;5005291;28;20238;-69
2021/03/14 03:42:26;;;;;;;1.23;0.60;;;;;;;5.47;100.00;97192.38;5007538;28;20211;-68
2021/03/14 03:44:55;;;;;;;3.10;0.63;;;;;;;5.53;100.00;97200.38;4998739;28;20215;-69
2021/03/14 03:47:22;;;;;;;0.40;0.40;;;;;;;5.39;100.00;97203.88;4992944;28;20228;-67
2021/03/14 03:49:51;;;;;;;0.47;0.47;;;;;;;5.49;100.00;97203.59;4993759;28;20252;-68
2021/03/14 03:52:18;;;;;;;1.73;0.70;;;;;;;5.51;100.00;97202.41;4993272;28;20212;-68
2021/03/14 03:54:48;;;;;;;3.07;0.50;;;;;;;5.59;100.00;97209.41;4997946;28;20212;-68
2021/03/14 03:57:16;;;;;;;3.03;0.50;;;;;;;5.62;100.00;97217.78;4986237;28;20212;-68
2021/03/14 03:59:43;;;;;;;0.47;0.47;;;;;;;5.47;100.00;97226.75;4993815;28;20227;-68
2021/03/14 04:02:11;;;;;;;1.10;0.50;;;;;;;5.07;100.00;97235.28;4994877;28;20223;-68
2021/03/14 04:04:39;;;;;;;1.83;0.60;;;;;;;5.12;100.00;97246.94;4992787;28;20212;-68
2021/03/14 04:07:07;;;;;;;0.60;0.60;;;;;;;5.19;100.00;97239.09;4991536;28;20293;-68
2021/03/14 04:09:33;;;;;;;0.60;0.60;;;;;;;5.01;100.00;97244.78;4998087;28;20224;-68
2021/03/14 04:12:01;;;;;;;1.33;0.77;;;;;;;4.85;100.00;97244.97;4998814;28;20203;-67
2021/03/14 04:14:28;;;;;;;0.90;0.63;;;;;;;4.79;100.00;97253.66;4985901;28;20208;-67
2021/03/14 04:17:03;;;;;;;0.37;0.30;;;;;;;4.74;100.00;97257.81;4984660;28;20195;-68
2021/03/14 04:19:33;;;;;;;1.40;0.33;;;;;;;4.67;100.00;97267.50;4992968;28;20231;-68
2021/03/14 04:22:00;;;;;;;0.50;0.40;;;;;;;4.92;100.00;97274.94;4990322;28;20269;-68
2021/03/14 04:24:30;;;;;;;2.70;0.57;;;;;;;4.77;100.00;97276.78;4988985;28;20208;-69
2021/03/14 04:26:58;;;;;;;0.57;0.57;;;;;;;4.81;100.00;97275.41;5002220;28;20219;-67
2021/03/14 04:29:28;;;;;;;0.60;0.50;;;;;;;4.88;100.00;97280.78;4996421;28;20655;-67
2021/03/14 04:31:59;;;;;;;3.60;0.57;;;;;;;4.90;100.00;97290.19;4995820;28;20286;-68
2021/03/14 04:34:27;;;;;;;3.00;0.90;;;;;;;4.91;100.00;97298.91;4988092;28;20218;-69
2021/03/14 04:36:54;;;;;;;0.60;0.60;;;;;;;4.95;100.00;97300.19;4992687;28;20197;-69
2021/03/14 04:39:22;;;;;;;1.00;0.50;;;;;;;4.84;100.00;97309.44;4988823;28;20279;-68
2021/03/14 04:41:49;;;;;;;2.77;0.80;;;;;;;4.95;100.00;97310.78;4993635;28;20211;-68
2021/03/14 04:44:17;;;;;;;0.77;0.63;;;;;;;5.03;100.00;97306.19;5000245;28;20203;-68
2021/03/14 04:46:45;;;;;;;0.97;0.80;;;;;;;4.70;100.00;97315.50;4985960;28;20227;-69
2021/03/14 04:49:13;;;;;;;1.30;0.60;;;;;;;4.93;100.00;97321.53;4999845;28;20234;-69
2021/03/14 04:51:45;;;;;;;1.00;0.60;;;;;;;4.81;100.00;97320.34;4995710;28;20274;-69
2021/03/14 04:54:13;;;;;;;0.63;0.50;;;;;;;4.79;100.00;97322.38;4996126;28;20204;-68
2021/03/14 04:56:41;;;;;;;1.17;0.60;;;;;;;4.84;100.00;97322.63;4989815;28;20206;-69
2021/03/14 04:59:09;;;;;;;1.23;0.80;;;;;;;4.79;100.00;97327.66;4988371;28;20805;-68
2021/03/14 05:01:38;;;;;;;1.63;0.50;;;;;;;4.91;100.00;97328.00;4987305;28;20538;-68
2021/03/14 05:04:08;;;;;;;0.60;0.50;;;;;;;4.85;100.00;97331.38;4999229;28;20565;-70
2021/03/14 05:06:36;;;;;;;0.70;0.67;;;;;;;4.80;100.00;97339.84;4988204;28;20264;-69
2021/03/14 05:09:04;;;;;;;0.80;0.60;;;;;;;4.73;100.00;97344.22;4994742;28;20248;-70
2021/03/14 05:11:31;;;;;;;1.40;0.70;;;;;;;4.80;100.00;97347.78;4985642;28;20207;-69
2021/03/14 05:13:59;;;;;;;3.70;0.90;;;;;;;4.50;100.00;97345.25;4999879;28;20203;-68
2021/03/14 05:16:27;;;;;;;0.50;0.50;;;;;;;4.72;100.00;97347.84;4994757;28;20667;-69
2021/03/14 05:18:54;;;;;;;0.57;0.50;;;;;;;4.68;100.00;97351.84;4995432;28;20227;-69
2021/03/14 05:21:22;;;;;;;1.73;0.70;;;;;;;4.60;100.00;97359.03;4994116;28;20884;-69
2021/03/14 05:23:49;;;;;;;2.00;0.80;;;;;;;4.68;100.00;97353.69;4988636;28;20270;-67
2021/03/14 05:26:16;;;;;;;4.50;0.77;;;;;;;4.62;100.00;97363.16;4983870;28;20223;-68
2021/03/14 05:28:43;;;;;;;2.33;0.63;;;;;;;4.68;100.00;97373.00;4985680;28;20610;-67
2021/03/14 05:31:30;;;;;;;0.67;0.50;;;;;;;4.37;100.00;97374.94;4990344;28;20210;-67
2021/03/14 05:33:59;;;;;;;1.13;0.70;;;;;;;4.44;100.00;97369.75;4992714;28;20286;-68
2021/03/14 05:36:27;;;;;;;1.40;0.53;;;;;;;4.44;100.00;97370.59;4986646;28;20199;-68
2021/03/14 05:38:55;;;;;;;1.27;0.60;;;;;;;4.44;100.00;97383.81;4990714;28;20571;-68
2021/03/14 05:41:22;;;;;;;1.70;0.50;;;;;;;4.37;100.00;97382.06;4985957;28;20254;-68
2021/03/14 05:43:49;;;;;;;0.90;0.50;;;;;;;4.43;100.00;97382.13;4977963;28;20225;-68
2021/03/14 05:46:16;;;;;;;1.80;0.50;;;;;;;4.57;100.00;97391.94;4993569;28;20223;-68
2021/03/14 05:48:43;;;;;;;0.60;0.60;;;;;;;4.31;100.00;97391.50;4991016;28;20285;-68
2021/03/14 05:51:10;;;;;;;4.80;0.63;;;;;;;4.47;100.00;97401.91;5003130;22;20235;-68
2021/03/14 05:53:40;;;;;;;2.60;0.80;;;;;;;4.58;100.00;97413.91;4978901;28;20787;-68
2021/03/14 05:56:08;;;;;;;1.13;0.80;;;;;;;4.71;100.00;97422.84;4992279;28;20204;-69
2021/03/14 05:58:36;;;;;;;3.77;0.90;;;;;;;4.71;100.00;97428.16;4999405;28;20668;-68
2021/03/14 06:01:08;;;;;;;1.87;0.80;;;;;;;4.77;100.00;97434.56;4997539;28;20220;-68
2021/03/14 06:03:37;;;;;;;2.97;1.17;;;;;;;4.93;100.00;97437.84;5005343;28;20208;-68
2021/03/14 06:06:05;;;;;;;4.43;0.90;;;;;;;4.94;100.00;97441.31;5002597;28;20227;-67
2021/03/14 06:08:33;;;;;;;3.60;2.10;;;;;;;5.02;100.00;97444.69;5002666;28;20211;-68
2021/03/14 06:11:02;;;;;;;3.90;1.10;;;;;;;4.79;100.00;97448.41;4989183;28;20232;-69
2021/03/14 06:13:29;;;;;;;1.60;1.10;;;;;;;5.08;100.00;97456.41;4991129;28;20199;-68
2021/03/14 06:15:56;;;;;;;1.80;0.90;;;;;;;5.07;100.00;97457.41;4988365;28;20657;-69
2021/03/14 06:18:23;;;;;;;1.90;1.03;;;;;;;5.04;100.00;97463.03;5002228;28;20206;-67
2021/03/14 06:20:50;;;;;;;1.73;1.00;;;;;;;5.03;100.00;97462.19;4990855;28;20266;-69
2021/03/14 06:23:18;;;;;;;2.70;0.90;;;;;;;4.99;100.00;97471.53;4983803;28;20208;-70
2021/03/14 06:25:47;;;;;;;1.60;1.10;;;;;;;4.96;100.00;97477.16;4997074;28;20223;-69
2021/03/14 06:28:16;;;;;;;1.97;1.20;;;;;;;4.95;100.00;97491.38;4994661;28;20204;-71
2021/03/14 06:30:43;;;;;;;5.80;1.20;;;;;;;4.96;100.00;97490.38;4999999;28;20223;-68
2021/03/14 06:33:11;;;;;;;2.43;0.80;;;;;;;5.00;100.00;97491.66;4989180;28;20211;-71
2021/03/14 06:35:40;;;;;;;4.27;1.57;;;;;;;5.02;100.00;97508.16;4992093;28;20596;-69
2021/03/14 06:38:25;;;;;;;3.17;1.00;;;;;;;5.16;100.00;97511.84;4992412;28;20660;-68
2021/03/14 06:41:10;;;;;;;3.80;1.00;;;;;;;5.37;100.00;97522.53;4992584;28;20228;-69
2021/03/14 06:43:40;;;;;;;2.33;0.70;;;;;;;5.32;100.00;97532.84;4991718;28;20754;-69
2021/03/14 06:46:22;;;;;;;3.73;0.83;;;;;;;5.42;100.00;97531.59;4990660;28;20598;-69
2021/03/14 06:49:05;;;;;;;3.20;0.80;;;;;;;5.27;100.00;97538.69;4993803;28;20203;-68
2021/03/14 06:51:35;;;;;;;1.43;0.80;;;;;;;5.63;100.00;97552.88;4988947;28;20238;-68
2021/03/14 06:54:33;;;;;;;2.70;0.80;;;;;;;5.78;100.00;97551.06;4996078;28;20208;-68
2021/03/14 06:57:12;;;;;;;3.07;1.00;;;;;;;5.69;100.00;97549.50;4990580;28;20199;-67
2021/03/14 06:59:42;;;;;;;3.37;1.00;;;;;;;5.59;100.00;97554.25;4992793;28;20215;-67
2021/03/14 07:02:11;;;;;;;4.27;0.83;;;;;;;5.57;100.00;97561.56;4995128;28;20199;-67
2021/03/14 07:04:40;;;;;;;3.63;1.30;;;;;;;5.47;100.00;97557.50;4992475;28;20215;-68
2021/03/14 07:07:12;;;;;;;2.37;0.93;;;;;;;5.67;100.00;97553.34;4993307;28;20233;-67
2021/03/14 07:09:39;;;;;;;3.23;1.03;;;;;;;5.88;100.00;97569.34;4999040;28;20676;-66
2021/03/14 07:12:19;;;;;;;2.77;0.97;;;;;;;5.81;100.00;97566.63;4997234;28;20234;-68
2021/03/14 07:14:48;;;;;;;4.13;1.13;;;;;;;6.12;100.00;97569.91;4994705;28;20205;-66
2021/03/14 07:17:33;;;;;;;2.80;1.33;;;;;;;5.85;100.00;97570.53;5000947;28;20229;-67
2021/03/14 07:20:08;;;;;;;2.53;0.67;;;;;;;6.00;100.00;97584.59;4990450;28;20689;-69
2021/03/14 07:22:35;;;;;;;2.93;0.83;;;;;;;6.01;100.00;97588.09;5003012;28;20304;-68
2021/03/14 07:25:02;;;;;;;3.70;1.10;;;;;;;6.63;100.00;97598.09;4987671;28;20207;-68
2021/03/14 07:27:30;;;;;;;1.77;1.00;;;;;;;6.70;100.00;97590.22;4990001;28;20227;-68
2021/03/14 07:29:59;;;;;;;3.77;1.10;;;;;;;6.97;100.00;97600.91;4986055;28;20206;-69
2021/03/14 07:32:26;;;;;;;3.93;1.10;;;;;;;7.16;100.00;97604.78;4994701;28;20215;-76
2021/03/14 07:34:53;;;;;;;7.30;1.13;;;;;;;7.70;100.00;97601.38;4990297;28;20209;-68
2021/03/14 07:37:21;;;;;;;3.20;0.90;;;;;;;7.78;100.00;97606.56;4994819;28;20672;-68
2021/03/14 07:39:49;;;;;;;3.73;0.90;;;;;;;7.43;100.00;97599.53;4993430;28;20674;-68
2021/03/14 07:42:20;;;;;;;4.47;1.20;;;;;;;7.62;100.00;97603.34;4989514;28;20221;-70
2021/03/14 07:44:46;;;;;;;5.45;1.00;;;;;;;7.24;100.00;97612.59;4999318;28;20464;-73
2021/03/14 07:47:16;;;;;;;2.83;1.00;;;;;;;7.11;100.00;97615.13;4992991;28;20714;-70
2021/03/14 07:49:48;;;;;;;4.70;0.90;;;;;;;6.68;100.00;97621.38;4990686;28;20214;-70
2021/03/14 07:52:24;;;;;;;1.70;0.90;;;;;;;6.74;100.00;97624.09;4993167;28;20267;-68
2021/03/14 07:54:53;;;;;;;2.70;0.90;;;;;;;6.65;100.00;97627.06;4991826;28;20459;-70
2021/03/14 07:57:23;;;;;;;2.60;0.70;;;;;;;6.69;100.00;97629.16;4993725;28;20210;-72
2021/03/14 07:59:50;;;;;;;4.30;1.23;;;;;;;6.70;100.00;97628.13;4994949;28;20853;-70
2021/03/14 08:02:28;;;;;;;3.03;0.90;;;;;;;6.71;100.00;97640.38;4993618;28;20630;-67
2021/03/14 08:05:00;;;;;;;3.83;1.43;;;;;;;6.58;100.00;97642.88;4986099;28;20205;-70
2021/03/14 08:07:48;;;;;;;2.20;0.60;;;;;;;6.85;100.00;97644.03;4994529;28;20244;-72
2021/03/14 08:10:34;;;;;;;3.23;0.97;;;;;;;6.89;100.00;97656.72;4991193;28;20231;-70
2021/03/14 08:13:00;;;;;;;2.47;0.87;;;;;;;7.19;100.00;97650.31;4990160;28;20206;-69
2021/03/14 08:15:29;;;;;;;2.83;0.80;;;;;;;6.66;100.00;97663.16;4992941;28;20617;-69
2021/03/14 08:17:58;;;;;;;1.63;0.60;;;;;;;6.93;100.00;97660.66;4991260;28;20205;-70
2021/03/14 08:20:45;;;;;;;4.47;0.80;;;;;;;7.08;100.00;97658.78;4996797;28;20237;-71
2021/03/14 08:23:13;;;;;;;2.87;0.93;;;;;;;7.41;100.00;97669.75;4995401;28;20210;-71
2021/03/14 08:25:41;;;;;;;2.20;0.50;;;;;;;7.41;100.00;97667.09;4988447;28;20290;-69
2021/03/14 08:28:30;;;;;;;4.43;0.80;;;;;;;7.30;100.00;97668.41;4993291;28;20240;-72
2021/03/14 08:30:58;;;;;;;2.10;0.77;;;;;;;7.30;100.00;97663.09;4985741;28;20652;-68
2021/03/14 08:33:48;;;;;;;4.57;0.80;;;;;;;7.21;100.00;97661.56;4997570;28;20255;-73
2021/03/14 08:36:16;;;;;;;5.87;1.30;;;;;;;7.56;100.00;97659.88;4999063;28;20202;-68
2021/03/14 08:38:45;;;;;;;4.67;1.43;;;;;;;8.14;100.00;97656.88;5001717;28;20218;-73
2021/03/14 08:41:38;;;;;;;1.20;0.60;;;;;;;8.45;100.00;97658.13;4992822;28;20234;-69
2021/03/14 08:44:08;;;;;;;2.23;0.60;;;;;;;8.49;96.83;97656.72;4984900;28;20223;-70
2021/03/14 08:47:08;;;;;;;2.47;0.60;;;;;;;8.52;93.79;97672.28;4993883;28;20318;-73
2021/03/14 08:49:38;;;;;;;1.40;0.53;;;;;;;7.83;96.62;97662.59;4992686;28;20212;-77
2021/03/14 08:52:06;;;;;;;2.53;0.53;;;;;;;7.87;96.20;97668.31;4998986;28;20232;-75
2021/03/14 08:54:35;;;;;;;1.23;0.50;;;;;;;8.19;91.90;97671.22;4994331;28;20210;-70
2021/03/14 08:57:06;;;;;;;2.67;0.77;;;;;;;8.01;91.28;97670.06;4990285;28;20202;-68
2021/03/14 08:59:33;;;;;;;2.73;0.60;;;;;;;8.10;92.66;97675.03;4990658;28;20557;-68
2021/03/14 09:02:01;;;;;;;4.50;0.80;;;;;;;8.41;93.76;97683.47;4990944;28;20229;-70
2021/03/14 09:04:30;;;;;;;1.30;0.70;;;;;;;8.05;91.79;97679.28;4989977;28;20211;-68
2021/03/14 09:07:05;;;;;;;2.83;0.60;;;;;;;7.99;87.86;97691.53;4989650;28;20296;-68
2021/03/14 09:09:32;;;;;;;2.73;0.77;;;;;;;8.34;93.44;97681.78;4991053;28;20206;-67
2021/03/14 09:12:03;;;;;;;2.97;0.87;;;;;;;8.58;89.61;97690.09;4991773;28;20665;-70
2021/03/14 09:14:35;;;;;;;2.70;0.90;;;;;;;7.97;95.47;97688.22;4990697;28;20203;-70
2021/03/14 09:17:05;;;;;;;2.77;0.80;;;;;;;7.50;96.38;97695.13;4984008;28;20291;-69
2021/03/14 09:19:35;;;;;;;2.47;0.70;;;;;;;8.27;95.23;97707.50;4999353;28;20207;-75
2021/03/14 09:22:05;;;;;;;3.70;0.70;;;;;;;8.76;87.88;97708.22;4994166;28;20227;-75
2021/03/14 09:24:47;;;;;;;2.00;0.67;;;;;;;9.21;85.90;97710.25;4992314;28;20207;-76
2021/03/14 09:27:18;;;;;;;3.97;0.90;;;;;;;9.05;87.30;97698.13;4996093;28;20309;-77
2021/03/14 09:29:53;;;;;;;3.00;0.77;;;;;;;10.11;76.93;97700.81;4993268;28;20660;-74
2021/03/14 09:32:38;;;;;;;5.33;0.90;;;;;;;9.77;78.82;97698.31;4997222;28;20229;-76
2021/03/14 09:35:24;;;;;;;2.40;0.60;;;;;;;9.28;79.40;97697.81;5003052;28;20209;-69
2021/03/14 09:37:54;;;;;;;1.43;0.60;;;;;;;9.63;76.23;97704.63;5001190;28;20199;-75
2021/03/14 09:40:24;;;;;;;1.90;0.60;;;;;;;10.31;74.71;97705.09;4996340;28;20227;-79
2021/03/14 09:42:53;;;;;;;2.27;0.87;;;;;;;9.11;79.16;97702.66;4995493;28;20226;-83
2021/03/14 09:45:21;;;;;;;1.77;0.60;;;;;;;10.34;73.54;97711.88;5005228;28;20294;-84
2021/03/14 09:48:06;;;;;;;1.63;0.70;;;;;;;8.74;80.08;97702.28;4998268;28;20259;-79
2021/03/14 09:50:35;;;;;;;3.10;0.67;;;;;;;9.06;85.43;97697.09;5007141;28;20231;-79
2021/03/14 09:53:04;;;;;;;3.63;0.70;;;;;;;9.08;77.43;97715.56;5018871;28;20282;-79
2021/03/14 09:55:33;;;;;;;1.77;0.50;;;;;;;9.17;77.82;97715.16;5012447;28;20243;-77
2021/03/14 09:58:00;;;;;;;1.90;0.63;;;;;;;8.97;76.17;97711.59;4998557;28;20207;-78
2021/03/14 10:00:29;;;;;;;2.43;0.77;;;;;;;8.91;78.96;97706.25;4998576;28;20231;-75
2021/03/14 10:02:58;;;;;;;1.40;0.53;;;;;;;9.06;79.08;97713.06;4995664;28;20282;-71
2021/03/14 10:05:25;;;;;;;1.80;0.60;;;;;;;8.68;76.50;97717.16;5000136;28;20549;-75
2021/03/14 10:07:53;;;;;;;1.63;0.63;;;;;;;8.27;83.29;97708.31;5000549;28;20294;-74
2021/03/14 10:10:21;;;;;;;3.40;1.10;;;;;;;8.69;81.23;97705.53;5002557;28;20237;-75
2021/03/14 10:12:48;;;;;;;1.60;0.67;;;;;;;8.57;80.60;97715.06;5000301;28;20207;-80
2021/03/14 10:15:17;;;;;;;1.63;0.60;;;;;;;8.77;82.98;97701.91;5001724;28;20282;-70
2021/03/14 10:17:44;;;;;;;4.37;0.87;;;;;;;9.13;78.94;97713.91;4994395;28;20199;-72
2021/03/14 10:20:12;;;;;;;1.57;0.53;;;;;;;9.03;78.07;97710.81;4996014;28;20220;-73
2021/03/14 10:22:39;;;;;;;2.73;0.97;;;;;;;9.12;78.13;97709.63;4995643;28;20243;-72
2021/03/14 10:25:21;;;;;;;1.90;0.43;;;;;;;9.11;77.82;97709.81;4993448;28;20218;-73
2021/03/14 10:27:49;;;;;;;2.23;0.97;;;;;;;9.25;77.38;97709.69;4993481;28;20231;-72
2021/03/14 10:30:19;;;;;;;6.87;1.20;;;;;;;8.97;75.30;97713.44;4994350;28;20266;-70
2021/03/14 10:32:47;;;;;;;4.17;1.17;;;;;;;9.08;75.82;97711.03;4988501;28;20251;-70
2021/03/14 10:35:14;;;;;;;2.43;0.90;;;;;;;9.24;73.91;97707.22;4990119;28;20307;-69
2021/03/14 10:37:42;;;;;;;1.47;0.50;;;;;;;9.12;74.83;97704.28;4992336;28;20203;-70
2021/03/14 10:40:12;;;;;;;2.20;0.60;;;;;;;9.15;75.51;97705.75;4999740;28;20338;-72
2021/03/14 10:42:40;;;;;;;1.17;0.50;;;;;;;8.94;73.07;97711.19;4994662;28;20216;-70
2021/03/14 10:45:11;;;;;;;2.43;0.80;;;;;;;9.26;72.08;97707.81;4994494;28;20672;-70
2021/03/14 10:47:39;;;;;;;1.70;0.60;;;;;;;8.99;70.65;97706.88;4994814;28;20263;-71
2021/03/14 10:50:16;;;;;;;2.73;0.67;;;;;;;9.39;72.52;97698.03;4988071;28;20240;-71
2021/03/14 10:52:43;;;;;;;0.77;0.67;;;;;;;10.01;69.05;97701.22;4987228;28;20206;-70
2021/03/14 10:55:30;;;;;;;2.60;0.90;;;;;;;10.33;63.81;97705.75;4994646;28;20208;-70
2021/03/14 10:58:08;;;;;;;0.40;0.40;;;;;;;10.40;64.34;97709.22;4992952;28;20200;-70
2021/03/14 11:00:37;;;;;;;5.90;0.73;;;;;;;10.31;60.14;97726.44;4994717;28;20236;-69
2021/03/14 11:03:12;;;;;;;1.40;0.60;;;;;;;10.51;59.09;97729.13;4994248;28;20268;-71
2021/03/14 11:05:40;;;;;;;0.80;0.60;;;;;;;10.46;61.35;97712.91;4999407;28;20235;-73
2021/03/14 11:08:07;;;;;;;3.13;0.60;;;;;;;9.38;64.85;97717.69;4992929;28;20246;-75
2021/03/14 11:10:34;;;;;;;0.87;0.60;;;;;;;9.94;61.53;97723.56;4982774;28;20224;-71
2021/03/14 11:13:07;;;;;;;2.90;0.90;;;;;;;9.79;61.76;97720.25;4991243;28;20205;-77
2021/03/14 11:15:36;;;;;;;1.97;0.70;;;;;;;8.60;60.14;97730.66;4987583;28;21074;-72
2021/03/14 11:18:04;;;;;;;1.63;0.60;;;;;;;9.63;59.17;97721.44;4994514;28;20557;-73
2021/03/14 11:20:32;;;;;;;0.70;0.40;;;;;;;9.89;57.81;97734.81;4995490;28;20231;-75
2021/03/14 11:23:00;;;;;;;4.30;0.70;;;;;;;10.20;58.10;97718.28;4995075;28;20561;-77
2021/03/14 11:25:28;;;;;;;1.13;0.50;;;;;;;9.59;58.13;97728.19;4993615;28;20258;-77
2021/03/14 11:27:55;;;;;;;0.60;0.40;;;;;;;9.61;55.09;97744.81;4996467;28;20212;-74
2021/03/14 11:30:24;;;;;;;3.03;0.80;;;;;;;9.91;54.83;97731.94;4992887;28;20228;-73
2021/03/14 11:32:52;;;;;;;4.60;0.80;;;;;;;10.54;54.84;97734.84;4996212;28;20219;-80
2021/03/14 11:35:22;;;;;;;2.60;0.70;;;;;;;9.39;52.48;97756.63;4996021;28;20561;-75
2021/03/14 11:37:49;;;;;;;0.93;0.50;;;;;;;8.73;54.77;97741.34;5008643;28;20572;-78
2021/03/14 11:40:16;;;;;;;1.50;0.43;;;;;;;8.51;57.27;97730.97;4994806;28;20761;-71
2021/03/14 11:42:43;;;;;;;2.37;0.60;;;;;;;9.54;55.05;97732.50;4995448;28;20254;-71
2021/03/14 11:45:12;;;;;;;1.97;0.80;;;;;;;9.72;55.16;97716.75;4993858;28;20640;-72